sensor_id;sensor_type;location;lat;lon;timestamp;P1;durP1;ratioP1;P2;durP2;ratioP2
79241;SDS011;68670;48.720;9.118;2023-04-24T00:01:07;7.18;;;2.15;;
79241;SDS011;68670;48.720;9.118;2023-04-24T00:03:33;6.30;;;2.00;;
79241;SDS011;68670;48.720;9.118;2023-04-24T00:06:01;9.18;;;2.50;;
79241;SDS011;68670;48.720;9.118;2023-04-24T00:08:27;7.97;;;2.33;;
79241;SDS011;68670;48.720;9.118;2023-04-24T00:10:53;8.80;;;3.13;;
79241;SDS011;68670;48.720;9.118;2023-04-24T00:13:23;7.80;;;2.28;;
79241;SDS011;68670;48.720;9.118;2023-04-24T00:15:51;6.78;;;2.42;;
79241;SDS011;68670;48.720;9.118;2023-04-24T00:18:18;6.60;;;2.45;;
79241;SDS011;68670;48.720;9.118;2023-04-24T00:20:46;7.10;;;2.20;;
79241;SDS011;68670;48.720;9.118;2023-04-24T00:23:13;6.20;;;2.10;;
79241;SDS011;68670;48.720;9.118;2023-04-24T00:25:39;5.38;;;2.03;;
79241;SDS011;68670;48.720;9.118;2023-04-24T00:28:06;6.07;;;2.70;;
79241;SDS011;68670;48.720;9.118;2023-04-24T00:30:34;5.63;;;2.15;;
79241;SDS011;68670;48.720;9.118;2023-04-24T00:32:59;7.82;;;2.38;;
79241;SDS011;68670;48.720;9.118;2023-04-24T00:35:28;13.15;;;2.47;;
79241;SDS011;68670;48.720;9.118;2023-04-24T00:37:55;9.18;;;2.30;;
79241;SDS011;68670;48.720;9.118;2023-04-24T00:40:23;6.65;;;2.38;;
79241;SDS011;68670;48.720;9.118;2023-04-24T00:42:48;6.85;;;1.92;;
79241;SDS011;68670;48.720;9.118;2023-04-24T00:45:13;7.38;;;2.50;;
79241;SDS011;68670;48.720;9.118;2023-04-24T00:47:39;7.25;;;2.25;;
79241;SDS011;68670;48.720;9.118;2023-04-24T00:50:06;8.05;;;2.08;;
79241;SDS011;68670;48.720;9.118;2023-04-24T00:52:32;8.30;;;2.20;;
79241;SDS011;68670;48.720;9.118;2023-04-24T00:54:58;8.60;;;2.00;;
79241;SDS011;68670;48.720;9.118;2023-04-24T00:57:24;7.78;;;2.30;;
79241;SDS011;68670;48.720;9.118;2023-04-24T00:59:50;11.27;;;2.40;;
79241;SDS011;68670;48.720;9.118;2023-04-24T01:02:17;6.32;;;2.25;;
79241;SDS011;68670;48.720;9.118;2023-04-24T01:04:45;7.68;;;2.20;;
79241;SDS011;68670;48.720;9.118;2023-04-24T01:07:13;8.20;;;1.90;;
79241;SDS011;68670;48.720;9.118;2023-04-24T01:09:38;7.55;;;2.42;;
79241;SDS011;68670;48.720;9.118;2023-04-24T01:12:07;8.10;;;2.22;;
79241;SDS011;68670;48.720;9.118;2023-04-24T01:14:36;9.07;;;2.20;;
79241;SDS011;68670;48.720;9.118;2023-04-24T01:17:02;10.85;;;2.28;;
79241;SDS011;68670;48.720;9.118;2023-04-24T01:19:29;5.50;;;2.38;;
79241;SDS011;68670;48.720;9.118;2023-04-24T01:21:59;8.00;;;2.03;;
79241;SDS011;68670;48.720;9.118;2023-04-24T01:24:27;7.80;;;2.17;;
79241;SDS011;68670;48.720;9.118;2023-04-24T01:26:53;9.80;;;2.28;;
79241;SDS011;68670;48.720;9.118;2023-04-24T01:29:19;9.70;;;2.65;;
79241;SDS011;68670;48.720;9.118;2023-04-24T01:31:47;9.05;;;2.30;;
79241;SDS011;68670;48.720;9.118;2023-04-24T01:34:15;7.88;;;2.28;;
79241;SDS011;68670;48.720;9.118;2023-04-24T01:36:42;8.60;;;2.47;;
79241;SDS011;68670;48.720;9.118;2023-04-24T01:39:10;5.07;;;2.00;;
79241;SDS011;68670;48.720;9.118;2023-04-24T01:41:35;6.70;;;2.40;;
79241;SDS011;68670;48.720;9.118;2023-04-24T01:44:02;5.70;;;1.80;;
79241;SDS011;68670;48.720;9.118;2023-04-24T01:46:28;11.23;;;2.25;;
79241;SDS011;68670;48.720;9.118;2023-04-24T01:48:55;7.97;;;2.25;;
79241;SDS011;68670;48.720;9.118;2023-04-24T01:51:21;6.38;;;2.55;;
79241;SDS011;68670;48.720;9.118;2023-04-24T01:53:46;5.68;;;2.08;;
79241;SDS011;68670;48.720;9.118;2023-04-24T01:56:11;10.60;;;2.63;;
79241;SDS011;68670;48.720;9.118;2023-04-24T01:58:39;8.90;;;2.72;;
79241;SDS011;68670;48.720;9.118;2023-04-24T02:01:09;6.60;;;2.35;;
79241;SDS011;68670;48.720;9.118;2023-04-24T02:03:47;8.68;;;2.53;;
79241;SDS011;68670;48.720;9.118;2023-04-24T02:06:15;10.90;;;2.83;;
79241;SDS011;68670;48.720;9.118;2023-04-24T02:08:42;5.35;;;2.00;;
79241;SDS011;68670;48.720;9.118;2023-04-24T02:11:11;10.32;;;2.83;;
79241;SDS011;68670;48.720;9.118;2023-04-24T02:13:36;6.00;;;2.20;;
79241;SDS011;68670;48.720;9.118;2023-04-24T02:16:04;7.85;;;2.20;;
79241;SDS011;68670;48.720;9.118;2023-04-24T02:18:34;10.15;;;2.80;;
79241;SDS011;68670;48.720;9.118;2023-04-24T02:21:02;7.70;;;2.63;;
79241;SDS011;68670;48.720;9.118;2023-04-24T02:23:27;6.65;;;2.67;;
79241;SDS011;68670;48.720;9.118;2023-04-24T02:25:52;5.82;;;2.42;;
79241;SDS011;68670;48.720;9.118;2023-04-24T02:28:18;11.50;;;2.67;;
79241;SDS011;68670;48.720;9.118;2023-04-24T02:30:46;10.15;;;3.15;;
79241;SDS011;68670;48.720;9.118;2023-04-24T02:33:15;5.43;;;2.47;;
79241;SDS011;68670;48.720;9.118;2023-04-24T02:35:43;7.55;;;2.35;;
79241;SDS011;68670;48.720;9.118;2023-04-24T02:38:09;11.43;;;2.53;;
79241;SDS011;68670;48.720;9.118;2023-04-24T02:40:34;6.22;;;2.53;;
79241;SDS011;68670;48.720;9.118;2023-04-24T02:43:00;7.63;;;2.47;;
79241;SDS011;68670;48.720;9.118;2023-04-24T02:45:29;9.30;;;2.72;;
79241;SDS011;68670;48.720;9.118;2023-04-24T02:47:59;9.90;;;2.60;;
79241;SDS011;68670;48.720;9.118;2023-04-24T02:50:25;7.90;;;2.72;;
79241;SDS011;68670;48.720;9.118;2023-04-24T02:52:50;8.85;;;3.13;;
79241;SDS011;68670;48.720;9.118;2023-04-24T02:55:15;6.03;;;2.90;;
79241;SDS011;68670;48.720;9.118;2023-04-24T02:57:41;11.18;;;3.13;;
79241;SDS011;68670;48.720;9.118;2023-04-24T03:00:08;14.25;;;2.47;;
79241;SDS011;68670;48.720;9.118;2023-04-24T03:02:34;14.00;;;2.55;;
79241;SDS011;68670;48.720;9.118;2023-04-24T03:05:02;16.58;;;2.63;;
79241;SDS011;68670;48.720;9.118;2023-04-24T03:07:30;6.53;;;2.95;;
79241;SDS011;68670;48.720;9.118;2023-04-24T03:10:04;11.70;;;2.67;;
79241;SDS011;68670;48.720;9.118;2023-04-24T03:12:30;5.63;;;1.92;;
79241;SDS011;68670;48.720;9.118;2023-04-24T03:15:00;9.93;;;2.42;;
79241;SDS011;68670;48.720;9.118;2023-04-24T03:17:30;11.20;;;2.38;;
79241;SDS011;68670;48.720;9.118;2023-04-24T03:19:56;9.00;;;2.63;;
79241;SDS011;68670;48.720;9.118;2023-04-24T03:22:23;11.40;;;2.40;;
79241;SDS011;68670;48.720;9.118;2023-04-24T03:24:48;7.68;;;2.63;;
79241;SDS011;68670;48.720;9.118;2023-04-24T03:27:14;5.72;;;2.72;;
79241;SDS011;68670;48.720;9.118;2023-04-24T03:29:39;15.00;;;3.53;;
79241;SDS011;68670;48.720;9.118;2023-04-24T03:32:05;9.43;;;2.65;;
79241;SDS011;68670;48.720;9.118;2023-04-24T03:34:32;7.03;;;2.05;;
79241;SDS011;68670;48.720;9.118;2023-04-24T03:37:00;7.38;;;2.50;;
79241;SDS011;68670;48.720;9.118;2023-04-24T03:39:27;10.18;;;2.63;;
79241;SDS011;68670;48.720;9.118;2023-04-24T03:41:53;8.27;;;2.75;;
79241;SDS011;68670;48.720;9.118;2023-04-24T03:44:18;9.13;;;2.35;;
79241;SDS011;68670;48.720;9.118;2023-04-24T03:46:44;11.80;;;2.65;;
79241;SDS011;68670;48.720;9.118;2023-04-24T03:49:09;6.72;;;2.45;;
79241;SDS011;68670;48.720;9.118;2023-04-24T03:51:39;7.85;;;2.72;;
79241;SDS011;68670;48.720;9.118;2023-04-24T03:54:04;8.93;;;2.83;;
79241;SDS011;68670;48.720;9.118;2023-04-24T03:56:32;5.10;;;2.50;;
79241;SDS011;68670;48.720;9.118;2023-04-24T03:58:59;9.48;;;2.30;;
79241;SDS011;68670;48.720;9.118;2023-04-24T04:01:25;9.82;;;2.53;;
79241;SDS011;68670;48.720;9.118;2023-04-24T04:03:50;10.13;;;2.50;;
79241;SDS011;68670;48.720;9.118;2023-04-24T04:06:18;6.15;;;2.25;;
79241;SDS011;68670;48.720;9.118;2023-04-24T04:08:46;5.18;;;2.05;;
79241;SDS011;68670;48.720;9.118;2023-04-24T04:11:11;7.30;;;2.13;;
79241;SDS011;68670;48.720;9.118;2023-04-24T04:13:41;11.52;;;2.70;;
79241;SDS011;68670;48.720;9.118;2023-04-24T04:16:09;11.23;;;2.33;;
79241;SDS011;68670;48.720;9.118;2023-04-24T04:18:34;8.18;;;2.20;;
79241;SDS011;68670;48.720;9.118;2023-04-24T04:20:59;6.47;;;1.90;;
79241;SDS011;68670;48.720;9.118;2023-04-24T04:23:27;8.20;;;2.35;;
79241;SDS011;68670;48.720;9.118;2023-04-24T04:25:53;7.40;;;1.95;;
79241;SDS011;68670;48.720;9.118;2023-04-24T04:28:21;5.97;;;2.25;;
79241;SDS011;68670;48.720;9.118;2023-04-24T04:30:46;18.52;;;3.20;;
79241;SDS011;68670;48.720;9.118;2023-04-24T04:33:12;14.88;;;3.95;;
79241;SDS011;68670;48.720;9.118;2023-04-24T04:35:37;10.48;;;4.68;;
79241;SDS011;68670;48.720;9.118;2023-04-24T04:38:03;11.40;;;3.67;;
79241;SDS011;68670;48.720;9.118;2023-04-24T04:40:29;13.30;;;4.80;;
79241;SDS011;68670;48.720;9.118;2023-04-24T04:45:20;15.02;;;5.15;;
79241;SDS011;68670;48.720;9.118;2023-04-24T04:50:13;15.90;;;4.55;;
79241;SDS011;68670;48.720;9.118;2023-04-24T04:52:41;11.98;;;4.25;;
79241;SDS011;68670;48.720;9.118;2023-04-24T04:57:32;10.95;;;3.67;;
79241;SDS011;68670;48.720;9.118;2023-04-24T05:00:00;13.10;;;4.93;;
79241;SDS011;68670;48.720;9.118;2023-04-24T05:04:51;7.63;;;3.77;;
79241;SDS011;68670;48.720;9.118;2023-04-24T05:07:16;12.35;;;4.53;;
79241;SDS011;68670;48.720;9.118;2023-04-24T05:09:42;12.48;;;4.18;;
79241;SDS011;68670;48.720;9.118;2023-04-24T05:12:09;16.35;;;4.32;;
79241;SDS011;68670;48.720;9.118;2023-04-24T05:17:00;12.13;;;4.00;;
79241;SDS011;68670;48.720;9.118;2023-04-24T05:21:51;13.93;;;4.40;;
79241;SDS011;68670;48.720;9.118;2023-04-24T05:24:16;15.98;;;4.30;;
79241;SDS011;68670;48.720;9.118;2023-04-24T05:29:07;16.75;;;4.82;;
79241;SDS011;68670;48.720;9.118;2023-04-24T05:33:57;16.70;;;5.28;;
79241;SDS011;68670;48.720;9.118;2023-04-24T05:36:23;13.35;;;4.65;;
79241;SDS011;68670;48.720;9.118;2023-04-24T05:41:13;22.73;;;4.75;;
79241;SDS011;68670;48.720;9.118;2023-04-24T05:46:06;15.00;;;4.70;;
79241;SDS011;68670;48.720;9.118;2023-04-24T05:48:34;16.02;;;5.18;;
79241;SDS011;68670;48.720;9.118;2023-04-24T05:53:24;15.70;;;4.80;;
79241;SDS011;68670;48.720;9.118;2023-04-24T05:58:15;17.35;;;5.20;;
79241;SDS011;68670;48.720;9.118;2023-04-24T06:00:40;16.55;;;5.18;;
79241;SDS011;68670;48.720;9.118;2023-04-24T06:03:11;19.05;;;6.30;;
79241;SDS011;68670;48.720;9.118;2023-04-24T06:05:39;21.38;;;5.70;;
79241;SDS011;68670;48.720;9.118;2023-04-24T06:10:32;19.55;;;6.13;;
79241;SDS011;68670;48.720;9.118;2023-04-24T06:13:00;18.73;;;6.60;;
79241;SDS011;68670;48.720;9.118;2023-04-24T06:17:56;18.73;;;6.28;;
79241;SDS011;68670;48.720;9.118;2023-04-24T06:20:24;20.20;;;6.35;;
79241;SDS011;68670;48.720;9.118;2023-04-24T06:25:15;21.23;;;5.55;;
79241;SDS011;68670;48.720;9.118;2023-04-24T06:27:40;23.52;;;7.18;;
79241;SDS011;68670;48.720;9.118;2023-04-24T06:30:09;17.20;;;5.88;;
79241;SDS011;68670;48.720;9.118;2023-04-24T06:35:02;16.33;;;5.10;;
79241;SDS011;68670;48.720;9.118;2023-04-24T06:37:29;17.65;;;5.80;;
79241;SDS011;68670;48.720;9.118;2023-04-24T06:42:19;17.47;;;5.70;;
79241;SDS011;68670;48.720;9.118;2023-04-24T06:44:48;16.77;;;6.03;;
79241;SDS011;68670;48.720;9.118;2023-04-24T06:49:39;24.23;;;6.40;;
79241;SDS011;68670;48.720;9.118;2023-04-24T06:52:05;17.98;;;5.90;;
79241;SDS011;68670;48.720;9.118;2023-04-24T06:54:31;31.20;;;8.98;;
79241;SDS011;68670;48.720;9.118;2023-04-24T06:56:57;18.42;;;5.47;;
79241;SDS011;68670;48.720;9.118;2023-04-24T06:59:25;17.52;;;5.30;;
79241;SDS011;68670;48.720;9.118;2023-04-24T07:01:50;12.70;;;5.78;;
79241;SDS011;68670;48.720;9.118;2023-04-24T07:04:16;16.33;;;5.47;;
79241;SDS011;68670;48.720;9.118;2023-04-24T07:06:42;18.48;;;5.88;;
79241;SDS011;68670;48.720;9.118;2023-04-24T07:09:08;13.35;;;5.90;;
79241;SDS011;68670;48.720;9.118;2023-04-24T07:11:34;13.05;;;4.70;;
79241;SDS011;68670;48.720;9.118;2023-04-24T07:14:03;16.80;;;5.15;;
79241;SDS011;68670;48.720;9.118;2023-04-24T07:16:28;13.63;;;5.13;;
79241;SDS011;68670;48.720;9.118;2023-04-24T07:18:55;14.43;;;4.68;;
79241;SDS011;68670;48.720;9.118;2023-04-24T07:21:20;10.57;;;3.97;;
79241;SDS011;68670;48.720;9.118;2023-04-24T07:23:45;13.30;;;4.38;;
79241;SDS011;68670;48.720;9.118;2023-04-24T07:26:11;14.10;;;4.10;;
79241;SDS011;68670;48.720;9.118;2023-04-24T07:28:36;10.93;;;3.55;;
79241;SDS011;68670;48.720;9.118;2023-04-24T07:31:03;12.00;;;4.60;;
79241;SDS011;68670;48.720;9.118;2023-04-24T07:33:31;11.48;;;4.63;;
79241;SDS011;68670;48.720;9.118;2023-04-24T07:35:59;13.90;;;4.95;;
79241;SDS011;68670;48.720;9.118;2023-04-24T07:38:25;36.67;;;10.25;;
79241;SDS011;68670;48.720;9.118;2023-04-24T07:40:50;14.60;;;4.60;;
79241;SDS011;68670;48.720;9.118;2023-04-24T07:43:16;10.95;;;4.15;;
79241;SDS011;68670;48.720;9.118;2023-04-24T07:45:45;12.30;;;3.78;;
79241;SDS011;68670;48.720;9.118;2023-04-24T07:48:12;14.10;;;4.25;;
79241;SDS011;68670;48.720;9.118;2023-04-24T07:50:41;11.65;;;3.95;;
79241;SDS011;68670;48.720;9.118;2023-04-24T07:53:06;10.90;;;3.78;;
79241;SDS011;68670;48.720;9.118;2023-04-24T07:55:34;10.90;;;3.85;;
79241;SDS011;68670;48.720;9.118;2023-04-24T07:58:00;11.05;;;4.30;;
79241;SDS011;68670;48.720;9.118;2023-04-24T08:00:25;11.75;;;5.07;;
79241;SDS011;68670;48.720;9.118;2023-04-24T08:02:51;11.93;;;3.60;;
79241;SDS011;68670;48.720;9.118;2023-04-24T08:05:19;11.98;;;3.70;;
79241;SDS011;68670;48.720;9.118;2023-04-24T08:07:45;10.68;;;3.90;;
79241;SDS011;68670;48.720;9.118;2023-04-24T08:10:15;11.20;;;3.97;;
79241;SDS011;68670;48.720;9.118;2023-04-24T08:12:41;7.90;;;3.50;;
79241;SDS011;68670;48.720;9.118;2023-04-24T08:15:06;14.00;;;4.18;;
79241;SDS011;68670;48.720;9.118;2023-04-24T08:17:33;10.32;;;3.72;;
79241;SDS011;68670;48.720;9.118;2023-04-24T08:20:00;13.80;;;4.10;;
79241;SDS011;68670;48.720;9.118;2023-04-24T08:22:29;16.63;;;4.25;;
79241;SDS011;68670;48.720;9.118;2023-04-24T08:24:59;12.43;;;3.63;;
79241;SDS011;68670;48.720;9.118;2023-04-24T08:27:25;13.00;;;3.85;;
79241;SDS011;68670;48.720;9.118;2023-04-24T08:29:52;11.23;;;4.38;;
79241;SDS011;68670;48.720;9.118;2023-04-24T08:32:18;8.50;;;4.03;;
79241;SDS011;68670;48.720;9.118;2023-04-24T08:34:48;10.07;;;3.42;;
79241;SDS011;68670;48.720;9.118;2023-04-24T08:37:13;23.25;;;8.05;;
79241;SDS011;68670;48.720;9.118;2023-04-24T08:39:38;9.27;;;4.13;;
79241;SDS011;68670;48.720;9.118;2023-04-24T08:42:04;11.88;;;4.85;;
79241;SDS011;68670;48.720;9.118;2023-04-24T08:44:33;15.10;;;4.80;;
79241;SDS011;68670;48.720;9.118;2023-04-24T08:47:00;11.95;;;4.35;;
79241;SDS011;68670;48.720;9.118;2023-04-24T08:49:30;12.32;;;3.40;;
79241;SDS011;68670;48.720;9.118;2023-04-24T08:51:56;9.48;;;3.55;;
79241;SDS011;68670;48.720;9.118;2023-04-24T08:54:21;13.02;;;4.45;;
79241;SDS011;68670;48.720;9.118;2023-04-24T08:56:49;10.75;;;3.45;;
79241;SDS011;68670;48.720;9.118;2023-04-24T08:59:15;16.77;;;4.88;;
79241;SDS011;68670;48.720;9.118;2023-04-24T09:01:41;12.48;;;4.15;;
79241;SDS011;68670;48.720;9.118;2023-04-24T09:04:07;12.05;;;4.35;;
79241;SDS011;68670;48.720;9.118;2023-04-24T09:06:38;9.00;;;3.30;;
79241;SDS011;68670;48.720;9.118;2023-04-24T09:09:06;15.52;;;5.88;;
79241;SDS011;68670;48.720;9.118;2023-04-24T09:11:36;14.35;;;5.35;;
79241;SDS011;68670;48.720;9.118;2023-04-24T09:14:02;11.18;;;3.85;;
79241;SDS011;68670;48.720;9.118;2023-04-24T09:16:28;10.48;;;4.38;;
79241;SDS011;68670;48.720;9.118;2023-04-24T09:18:54;13.18;;;4.28;;
79241;SDS011;68670;48.720;9.118;2023-04-24T09:21:20;11.82;;;4.78;;
79241;SDS011;68670;48.720;9.118;2023-04-24T09:23:47;12.40;;;4.30;;
79241;SDS011;68670;48.720;9.118;2023-04-24T09:26:24;9.77;;;3.53;;
79241;SDS011;68670;48.720;9.118;2023-04-24T09:28:53;15.02;;;4.60;;
79241;SDS011;68670;48.720;9.118;2023-04-24T09:31:18;16.90;;;3.85;;
79241;SDS011;68670;48.720;9.118;2023-04-24T09:33:56;9.60;;;3.55;;
79241;SDS011;68670;48.720;9.118;2023-04-24T09:36:27;7.70;;;3.45;;
79241;SDS011;68670;48.720;9.118;2023-04-24T09:38:53;21.65;;;3.80;;
79241;SDS011;68670;48.720;9.118;2023-04-24T09:41:25;13.48;;;3.00;;
79241;SDS011;68670;48.720;9.118;2023-04-24T09:43:50;5.60;;;2.65;;
79241;SDS011;68670;48.720;9.118;2023-04-24T09:46:18;10.00;;;3.88;;
79241;SDS011;68670;48.720;9.118;2023-04-24T09:48:44;7.65;;;3.50;;
79241;SDS011;68670;48.720;9.118;2023-04-24T09:51:12;9.05;;;3.70;;
79241;SDS011;68670;48.720;9.118;2023-04-24T09:53:38;8.90;;;2.80;;
79241;SDS011;68670;48.720;9.118;2023-04-24T09:56:07;8.52;;;2.90;;
79241;SDS011;68670;48.720;9.118;2023-04-24T09:58:34;18.58;;;4.40;;
79241;SDS011;68670;48.720;9.118;2023-04-24T10:01:03;11.40;;;3.20;;
79241;SDS011;68670;48.720;9.118;2023-04-24T10:03:32;6.72;;;2.53;;
79241;SDS011;68670;48.720;9.118;2023-04-24T10:05:59;26.77;;;7.70;;
79241;SDS011;68670;48.720;9.118;2023-04-24T10:08:24;11.95;;;3.45;;
79241;SDS011;68670;48.720;9.118;2023-04-24T10:10:51;7.80;;;3.53;;
79241;SDS011;68670;48.720;9.118;2023-04-24T10:13:17;6.80;;;2.95;;
79241;SDS011;68670;48.720;9.118;2023-04-24T10:15:42;7.53;;;2.58;;
79241;SDS011;68670;48.720;9.118;2023-04-24T10:18:11;15.38;;;3.92;;
79241;SDS011;68670;48.720;9.118;2023-04-24T10:20:39;10.07;;;2.97;;
79241;SDS011;68670;48.720;9.118;2023-04-24T10:23:07;6.72;;;2.97;;
79241;SDS011;68670;48.720;9.118;2023-04-24T10:25:38;9.57;;;2.90;;
79241;SDS011;68670;48.720;9.118;2023-04-24T10:28:03;14.23;;;3.30;;
79241;SDS011;68670;48.720;9.118;2023-04-24T10:30:30;6.70;;;2.30;;
79241;SDS011;68670;48.720;9.118;2023-04-24T10:33:01;8.68;;;3.17;;
79241;SDS011;68670;48.720;9.118;2023-04-24T10:35:34;7.30;;;2.95;;
79241;SDS011;68670;48.720;9.118;2023-04-24T10:38:22;8.48;;;2.90;;
79241;SDS011;68670;48.720;9.118;2023-04-24T10:44:06;8.57;;;2.95;;
79241;SDS011;68670;48.720;9.118;2023-04-24T10:46:32;8.18;;;2.90;;
79241;SDS011;68670;48.720;9.118;2023-04-24T10:49:03;10.35;;;2.95;;
79241;SDS011;68670;48.720;9.118;2023-04-24T10:51:53;7.82;;;2.97;;
79241;SDS011;68670;48.720;9.118;2023-04-24T10:54:27;5.78;;;2.28;;
79241;SDS011;68670;48.720;9.118;2023-04-24T10:59:51;8.18;;;3.03;;
79241;SDS011;68670;48.720;9.118;2023-04-24T11:02:37;7.32;;;3.33;;
79241;SDS011;68670;48.720;9.118;2023-04-24T11:05:04;10.32;;;2.90;;
79241;SDS011;68670;48.720;9.118;2023-04-24T11:07:30;7.90;;;2.53;;
79241;SDS011;68670;48.720;9.118;2023-04-24T11:10:38;8.48;;;3.13;;
79241;SDS011;68670;48.720;9.118;2023-04-24T11:13:16;6.28;;;2.78;;
79241;SDS011;68670;48.720;9.118;2023-04-24T11:15:46;27.75;;;7.47;;
79241;SDS011;68670;48.720;9.118;2023-04-24T11:21:48;9.55;;;2.97;;
79241;SDS011;68670;48.720;9.118;2023-04-24T11:32:14;11.60;;;3.63;;
79241;SDS011;68670;48.720;9.118;2023-04-24T11:34:45;9.73;;;3.20;;
79241;SDS011;68670;48.720;9.118;2023-04-24T11:37:11;8.80;;;3.30;;
79241;SDS011;68670;48.720;9.118;2023-04-24T11:39:37;8.43;;;3.00;;
79241;SDS011;68670;48.720;9.118;2023-04-24T11:42:03;9.02;;;3.53;;
79241;SDS011;68670;48.720;9.118;2023-04-24T11:44:31;9.05;;;3.78;;
79241;SDS011;68670;48.720;9.118;2023-04-24T11:46:59;7.88;;;3.45;;
79241;SDS011;68670;48.720;9.118;2023-04-24T11:49:24;15.25;;;3.95;;
79241;SDS011;68670;48.720;9.118;2023-04-24T11:51:50;10.30;;;3.47;;
79241;SDS011;68670;48.720;9.118;2023-04-24T11:54:15;14.63;;;4.00;;
79241;SDS011;68670;48.720;9.118;2023-04-24T11:56:44;15.60;;;3.95;;
79241;SDS011;68670;48.720;9.118;2023-04-24T12:01:44;7.90;;;3.53;;
79241;SDS011;68670;48.720;9.118;2023-04-24T12:04:14;8.05;;;3.83;;
79241;SDS011;68670;48.720;9.118;2023-04-24T12:07:02;15.75;;;4.57;;
79241;SDS011;68670;48.720;9.118;2023-04-24T12:09:27;13.02;;;3.58;;
79241;SDS011;68670;48.720;9.118;2023-04-24T12:12:05;13.43;;;3.80;;
79241;SDS011;68670;48.720;9.118;2023-04-24T12:14:31;10.02;;;3.90;;
79241;SDS011;68670;48.720;9.118;2023-04-24T12:16:56;8.48;;;3.55;;
79241;SDS011;68670;48.720;9.118;2023-04-24T12:19:27;15.00;;;3.75;;
79241;SDS011;68670;48.720;9.118;2023-04-24T12:22:01;9.70;;;4.05;;
79241;SDS011;68670;48.720;9.118;2023-04-24T12:24:31;18.40;;;3.83;;
79241;SDS011;68670;48.720;9.118;2023-04-24T12:26:57;7.15;;;3.20;;
79241;SDS011;68670;48.720;9.118;2023-04-24T12:29:23;8.27;;;3.67;;
79241;SDS011;68670;48.720;9.118;2023-04-24T12:31:49;15.55;;;4.72;;
79241;SDS011;68670;48.720;9.118;2023-04-24T12:34:19;24.67;;;4.90;;
79241;SDS011;68670;48.720;9.118;2023-04-24T12:36:46;11.93;;;4.03;;
79241;SDS011;68670;48.720;9.118;2023-04-24T12:39:18;9.68;;;4.53;;
79241;SDS011;68670;48.720;9.118;2023-04-24T12:41:55;11.60;;;3.75;;
79241;SDS011;68670;48.720;9.118;2023-04-24T12:44:33;8.95;;;3.72;;
79241;SDS011;68670;48.720;9.118;2023-04-24T12:47:00;9.18;;;3.58;;
79241;SDS011;68670;48.720;9.118;2023-04-24T12:49:31;11.60;;;3.55;;
79241;SDS011;68670;48.720;9.118;2023-04-24T12:51:56;8.88;;;3.72;;
79241;SDS011;68670;48.720;9.118;2023-04-24T12:54:24;10.93;;;3.70;;
79241;SDS011;68670;48.720;9.118;2023-04-24T12:56:52;6.40;;;3.15;;
79241;SDS011;68670;48.720;9.118;2023-04-24T12:59:17;9.88;;;3.20;;
79241;SDS011;68670;48.720;9.118;2023-04-24T13:01:42;42.28;;;10.52;;
79241;SDS011;68670;48.720;9.118;2023-04-24T13:04:08;8.95;;;3.38;;
79241;SDS011;68670;48.720;9.118;2023-04-24T13:06:33;11.20;;;4.43;;
79241;SDS011;68670;48.720;9.118;2023-04-24T13:09:01;13.65;;;3.97;;
79241;SDS011;68670;48.720;9.118;2023-04-24T13:11:26;9.25;;;3.88;;
79241;SDS011;68670;48.720;9.118;2023-04-24T13:13:54;8.60;;;3.80;;
79241;SDS011;68670;48.720;9.118;2023-04-24T13:16:19;10.68;;;4.40;;
79241;SDS011;68670;48.720;9.118;2023-04-24T13:18:45;15.43;;;4.47;;
79241;SDS011;68670;48.720;9.118;2023-04-24T13:21:10;11.07;;;4.68;;
79241;SDS011;68670;48.720;9.118;2023-04-24T13:23:35;11.15;;;4.15;;
79241;SDS011;68670;48.720;9.118;2023-04-24T13:26:03;12.73;;;4.35;;
79241;SDS011;68670;48.720;9.118;2023-04-24T13:28:28;10.90;;;4.10;;
79241;SDS011;68670;48.720;9.118;2023-04-24T13:30:55;12.73;;;4.00;;
79241;SDS011;68670;48.720;9.118;2023-04-24T13:33:20;12.10;;;4.50;;
79241;SDS011;68670;48.720;9.118;2023-04-24T13:35:45;11.07;;;4.30;;
79241;SDS011;68670;48.720;9.118;2023-04-24T13:38:11;17.25;;;5.20;;
79241;SDS011;68670;48.720;9.118;2023-04-24T13:40:36;9.90;;;3.85;;
79241;SDS011;68670;48.720;9.118;2023-04-24T13:43:02;10.85;;;4.03;;
79241;SDS011;68670;48.720;9.118;2023-04-24T13:45:27;10.07;;;3.70;;
79241;SDS011;68670;48.720;9.118;2023-04-24T13:47:53;13.68;;;4.22;;
79241;SDS011;68670;48.720;9.118;2023-04-24T13:50:21;14.10;;;4.20;;
79241;SDS011;68670;48.720;9.118;2023-04-24T13:52:47;12.73;;;4.88;;
79241;SDS011;68670;48.720;9.118;2023-04-24T13:55:15;12.07;;;4.38;;
79241;SDS011;68670;48.720;9.118;2023-04-24T13:57:40;14.15;;;4.38;;
79241;SDS011;68670;48.720;9.118;2023-04-24T14:00:05;15.55;;;4.55;;
79241;SDS011;68670;48.720;9.118;2023-04-24T14:02:31;12.45;;;4.28;;
79241;SDS011;68670;48.720;9.118;2023-04-24T14:04:56;9.35;;;4.60;;
79241;SDS011;68670;48.720;9.118;2023-04-24T14:07:22;12.82;;;4.63;;
79241;SDS011;68670;48.720;9.118;2023-04-24T14:09:47;14.60;;;4.65;;
79241;SDS011;68670;48.720;9.118;2023-04-24T14:12:12;14.57;;;5.07;;
79241;SDS011;68670;48.720;9.118;2023-04-24T14:14:39;20.20;;;6.95;;
79241;SDS011;68670;48.720;9.118;2023-04-24T14:17:04;15.73;;;5.20;;
79241;SDS011;68670;48.720;9.118;2023-04-24T14:19:30;14.95;;;4.85;;
79241;SDS011;68670;48.720;9.118;2023-04-24T14:21:57;11.57;;;5.40;;
79241;SDS011;68670;48.720;9.118;2023-04-24T14:24:25;13.57;;;4.70;;
79241;SDS011;68670;48.720;9.118;2023-04-24T14:26:50;18.77;;;5.50;;
79241;SDS011;68670;48.720;9.118;2023-04-24T14:29:15;18.60;;;5.85;;
79241;SDS011;68670;48.720;9.118;2023-04-24T14:31:41;17.23;;;5.80;;
79241;SDS011;68670;48.720;9.118;2023-04-24T14:34:07;17.90;;;6.35;;
79241;SDS011;68670;48.720;9.118;2023-04-24T14:36:33;15.13;;;5.20;;
79241;SDS011;68670;48.720;9.118;2023-04-24T14:38:58;14.77;;;5.53;;
79241;SDS011;68670;48.720;9.118;2023-04-24T14:41:23;13.05;;;5.15;;
79241;SDS011;68670;48.720;9.118;2023-04-24T14:43:49;13.98;;;5.35;;
79241;SDS011;68670;48.720;9.118;2023-04-24T14:46:14;17.77;;;5.60;;
79241;SDS011;68670;48.720;9.118;2023-04-24T14:48:39;15.77;;;5.03;;
79241;SDS011;68670;48.720;9.118;2023-04-24T14:51:05;13.27;;;5.38;;
79241;SDS011;68670;48.720;9.118;2023-04-24T14:53:30;13.65;;;5.18;;
79241;SDS011;68670;48.720;9.118;2023-04-24T14:55:58;13.70;;;5.45;;
79241;SDS011;68670;48.720;9.118;2023-04-24T14:58:23;14.05;;;4.78;;
79241;SDS011;68670;48.720;9.118;2023-04-24T15:00:48;23.40;;;6.38;;
79241;SDS011;68670;48.720;9.118;2023-04-24T15:03:19;30.25;;;8.32;;
79241;SDS011;68670;48.720;9.118;2023-04-24T15:05:48;15.93;;;4.53;;
79241;SDS011;68670;48.720;9.118;2023-04-24T15:08:13;15.65;;;4.72;;
79241;SDS011;68670;48.720;9.118;2023-04-24T15:10:39;14.20;;;4.30;;
79241;SDS011;68670;48.720;9.118;2023-04-24T15:13:07;9.40;;;4.55;;
79241;SDS011;68670;48.720;9.118;2023-04-24T15:15:32;12.98;;;5.78;;
79241;SDS011;68670;48.720;9.118;2023-04-24T15:17:57;11.93;;;4.60;;
79241;SDS011;68670;48.720;9.118;2023-04-24T15:20:23;12.52;;;4.90;;
79241;SDS011;68670;48.720;9.118;2023-04-24T15:22:48;16.85;;;4.40;;
79241;SDS011;68670;48.720;9.118;2023-04-24T15:25:14;16.15;;;5.03;;
79241;SDS011;68670;48.720;9.118;2023-04-24T15:27:42;12.65;;;4.65;;
79241;SDS011;68670;48.720;9.118;2023-04-24T15:30:09;11.30;;;4.28;;
79241;SDS011;68670;48.720;9.118;2023-04-24T15:32:37;15.23;;;4.95;;
79241;SDS011;68670;48.720;9.118;2023-04-24T15:35:04;13.40;;;4.93;;
79241;SDS011;68670;48.720;9.118;2023-04-24T15:37:30;14.82;;;5.38;;
79241;SDS011;68670;48.720;9.118;2023-04-24T15:39:55;13.20;;;4.68;;
79241;SDS011;68670;48.720;9.118;2023-04-24T15:42:24;12.65;;;5.03;;
79241;SDS011;68670;48.720;9.118;2023-04-24T15:44:50;20.13;;;7.03;;